Time;durP1;ratioP1;P1;durP2;ratioP2;P2;SDS_P1;SDS_P2;PMS_P1;PMS_P2;Temp;Humidity;BMP_temperature;BMP_pressure;BME280_temperature;BME280_humidity;BME280_pressure;Samples;Min_cycle;Max_cycle;Signal;HPM_P1;HPM_P2
2023/03/24 00:02:12;;;;;;;0.52;0.52;;;;;;;11.24;100.00;100305.03;5094592;28;20216;-77
2023/03/24 00:04:41;;;;;;;0.63;0.63;;;;;;;11.28;100.00;100300.75;5093758;28;20603;-77
2023/03/24 00:07:13;;;;;;;0.80;0.80;;;;;;;11.15;100.00;100262.50;5094042;28;20190;-76
2023/03/24 00:09:40;;;;;;;0.70;0.70;;;;;;;11.17;100.00;100256.47;5054778;28;20286;-77
2023/03/24 00:12:10;;;;;;;0.60;0.60;;;;;;;11.32;100.00;100282.66;5080245;28;20225;-77
2023/03/24 00:14:38;;;;;;;0.70;0.70;;;;;;;11.20;100.00;100284.22;5093758;28;20205;-76
2023/03/24 00:17:05;;;;;;;0.73;0.73;;;;;;;11.17;100.00;100258.19;5093276;28;20202;-76
2023/03/24 00:19:37;;;;;;;0.80;0.80;;;;;;;11.12;100.00;100252.06;5093591;28;20212;-76
2023/03/24 00:22:04;;;;;;;0.80;0.80;;;;;;;11.19;100.00;100277.25;5094112;28;20214;-77
2023/03/24 00:24:31;;;;;;;1.52;1.00;;;;;;;11.13;100.00;100265.06;5078946;28;20202;-77
2023/03/24 00:26:58;;;;;;;0.55;0.55;;;;;;;11.07;100.00;100252.00;5073411;28;20662;-77
2023/03/24 00:29:26;;;;;;;0.60;0.60;;;;;;;11.22;100.00;100259.13;5084057;28;20202;-77
2023/03/24 00:31:54;;;;;;;0.60;0.60;;;;;;;11.12;100.00;100255.53;5093121;28;20220;-76
2023/03/24 00:34:21;;;;;;;0.50;0.50;;;;;;;11.17;100.00;100260.78;5093375;28;20285;-77
2023/03/24 00:36:49;;;;;;;0.70;0.70;;;;;;;10.77;100.00;100178.91;5093318;28;20263;-77
2023/03/24 00:39:17;;;;;;;0.68;0.68;;;;;;;11.28;100.00;100254.91;5093396;28;20205;-77
2023/03/24 00:41:45;;;;;;;0.60;0.60;;;;;;;11.37;100.00;100260.25;5092955;28;20280;-78
2023/03/24 00:44:16;;;;;;;0.70;0.70;;;;;;;11.36;100.00;100258.50;5057453;28;20697;-78
2023/03/24 00:46:55;;;;;;;0.57;0.57;;;;;;;11.40;100.00;100249.91;5093165;28;20201;-77
2023/03/24 00:49:40;;;;;;;0.70;0.70;;;;;;;11.41;100.00;100251.63;5092985;28;20197;-77
2023/03/24 00:52:09;;;;;;;0.60;0.60;;;;;;;11.43;100.00;100255.13;5092987;28;20233;-77
2023/03/24 00:54:36;;;;;;;0.80;0.80;;;;;;;11.43;100.00;100249.94;5093472;28;20230;-78
2023/03/24 00:57:03;;;;;;;0.60;0.60;;;;;;;11.43;100.00;100260.34;5093369;28;20210;-77
2023/03/24 00:59:30;;;;;;;0.75;0.75;;;;;;;11.34;100.00;100252.41;5092757;28;20226;-76
2023/03/24 01:01:59;;;;;;;0.60;0.60;;;;;;;11.44;100.00;100254.28;5092764;28;20200;-76
2023/03/24 01:04:26;;;;;;;0.70;0.70;;;;;;;11.39;100.00;100263.72;5092891;28;20284;-77
2023/03/24 01:06:57;;;;;;;0.60;0.60;;;;;;;11.30;100.00;100268.81;5092173;28;20197;-76
2023/03/24 01:09:24;;;;;;;0.60;0.60;;;;;;;11.17;100.00;100246.09;5092384;28;20567;-76
2023/03/24 01:11:51;;;;;;;0.60;0.60;;;;;;;11.18;100.00;100281.56;5092413;28;20735;-76
2023/03/24 01:14:18;;;;;;;0.60;0.60;;;;;;;11.03;100.00;100273.53;5092495;28;20212;-76
2023/03/24 01:16:45;;;;;;;0.50;0.50;;;;;;;10.85;100.00;100261.16;5092647;28;20206;-77
2023/03/24 01:19:14;;;;;;;0.60;0.60;;;;;;;10.58;100.00;100236.47;5085128;28;20578;-77
2023/03/24 01:21:41;;;;;;;0.60;0.60;;;;;;;10.67;100.00;100265.13;5072460;28;20261;-77
2023/03/24 01:24:08;;;;;;;1.45;1.45;;;;;;;10.63;100.00;100242.63;5037147;28;20248;-77
2023/03/24 01:26:35;;;;;;;0.60;0.60;;;;;;;10.71;100.00;100260.03;5072823;28;20238;-77
2023/03/24 01:29:02;;;;;;;1.02;1.02;;;;;;;10.71;100.00;100260.03;5072657;28;20580;-76
2023/03/24 01:31:29;;;;;;;0.60;0.60;;;;;;;10.71;100.00;100259.16;5072578;28;20202;-76
2023/03/24 01:33:56;;;;;;;0.98;0.98;;;;;;;10.61;100.00;100241.72;5089136;28;20281;-77
2023/03/24 01:36:24;;;;;;;1.73;1.73;;;;;;;10.64;100.00;100253.00;5057306;28;20190;-77
2023/03/24 01:38:51;;;;;;;0.70;0.70;;;;;;;10.44;100.00;100250.06;5092302;28;20196;-76
2023/03/24 01:41:18;;;;;;;0.90;0.90;;;;;;;10.36;100.00;100248.16;5092437;28;20643;-76
2023/03/24 01:43:45;;;;;;;0.80;0.80;;;;;;;10.26;100.00;100238.50;5092297;28;20202;-76
2023/03/24 01:46:18;;;;;;;0.60;0.60;;;;;;;10.29;100.00;100238.53;5056328;28;20202;-77
2023/03/24 01:48:51;;;;;;;0.80;0.80;;;;;;;10.31;100.00;100232.53;5091371;28;20190;-77
2023/03/24 01:51:22;;;;;;;0.70;0.70;;;;;;;10.28;100.00;100236.78;5056887;28;20576;-76
2023/03/24 01:53:54;;;;;;;0.90;0.90;;;;;;;10.32;100.00;100234.28;5091590;28;20194;-76
2023/03/24 01:56:22;;;;;;;0.88;0.88;;;;;;;10.29;100.00;100243.72;5092340;28;20228;-76
2023/03/24 01:58:52;;;;;;;0.75;0.75;;;;;;;10.37;100.00;100248.22;5091780;28;20318;-78
2023/03/24 02:01:20;;;;;;;0.80;0.80;;;;;;;10.20;100.00;100228.03;5092201;28;20198;-76
2023/03/24 02:03:48;;;;;;;0.90;0.90;;;;;;;10.16;100.00;100211.53;5073990;28;20214;-76
2023/03/24 02:06:17;;;;;;;1.05;1.05;;;;;;;10.41;100.00;100249.16;5091413;28;20588;-76
2023/03/24 02:08:51;;;;;;;0.60;0.60;;;;;;;10.42;100.00;100246.56;5091627;28;20197;-77
2023/03/24 02:11:19;;;;;;;0.60;0.60;;;;;;;10.26;100.00;100231.59;5091483;28;20202;-76
2023/03/24 02:13:46;;;;;;;0.70;0.70;;;;;;;10.39;100.00;100246.50;5055854;28;20224;-75
2023/03/24 02:16:27;;;;;;;0.60;0.60;;;;;;;10.37;100.00;100229.19;5091337;28;20648;-76
2023/03/24 02:19:11;;;;;;;0.70;0.70;;;;;;;10.42;100.00;100231.00;5090962;28;20284;-77
2023/03/24 02:22:15;;;;;;;0.80;0.80;;;;;;;10.44;100.00;100226.75;5091653;28;20205;-76
2023/03/24 02:25:11;;;;;;;0.70;0.70;;;;;;;10.35;100.00;100213.59;5091476;28;20204;-77
2023/03/24 02:27:57;;;;;;;0.50;0.50;;;;;;;10.33;100.00;100224.81;4989041;28;20212;-77
2023/03/24 02:30:53;;;;;;;0.63;0.63;;;;;;;10.16;100.00;100203.78;4989732;28;20646;-77
2023/03/24 02:34:01;;;;;;;0.63;0.63;;;;;;;10.27;100.00;100211.75;4943401;29;20235;-77
2023/03/24 02:37:13;;;;;;;0.80;0.80;;;;;;;10.15;100.00;100204.59;4942089;29;20207;-77
2023/03/24 02:40:06;;;;;;;0.80;0.80;;;;;;;10.05;100.00;100206.97;4945349;29;20259;-77
2023/03/24 02:42:44;;;;;;;0.75;0.75;;;;;;;10.01;100.00;100215.50;4936894;29;20311;-77
2023/03/24 02:45:23;;;;;;;0.70;0.70;;;;;;;9.89;100.00;100204.06;4931977;29;20245;-77
2023/03/24 02:48:01;;;;;;;0.60;0.60;;;;;;;9.98;100.00;100216.34;4932184;29;20207;-78
2023/03/24 02:50:33;;;;;;;0.60;0.60;;;;;;;9.94;100.00;100214.53;4932451;29;20577;-75
2023/03/24 02:53:09;;;;;;;0.60;0.60;;;;;;;9.86;100.00;100213.50;4912853;29;20240;-77
2023/03/24 02:55:44;;;;;;;0.73;0.73;;;;;;;9.79;100.00;100219.41;4927472;29;20207;-76
2023/03/24 02:58:16;;;;;;;0.70;0.70;;;;;;;9.71;100.00;100221.81;4930775;29;20231;-76
2023/03/24 03:00:48;;;;;;;0.70;0.70;;;;;;;9.70;100.00;100229.59;4931078;29;20211;-77
2023/03/24 03:03:21;;;;;;;0.70;0.70;;;;;;;9.63;100.00;100227.72;4900132;29;20214;-76
2023/03/24 03:05:53;;;;;;;0.70;0.70;;;;;;;9.51;100.00;100242.97;4991142;28;20197;-76
2023/03/24 03:08:22;;;;;;;0.70;0.70;;;;;;;9.38;100.00;100203.03;4989357;28;20207;-76
2023/03/24 03:10:54;;;;;;;0.80;0.80;;;;;;;9.41;100.00;100222.06;5046624;28;20629;-76
2023/03/24 03:13:26;;;;;;;1.00;1.00;;;;;;;9.36;100.00;100218.50;5090229;28;20758;-77
2023/03/24 03:15:56;;;;;;;0.80;0.80;;;;;;;9.37;100.00;100212.50;5091414;28;20201;-75
2023/03/24 03:18:27;;;;;;;0.60;0.60;;;;;;;9.43;100.00;100209.16;5074665;28;20191;-76
2023/03/24 03:20:59;;;;;;;0.80;0.80;;;;;;;9.43;100.00;100217.78;5071117;28;20207;-76
2023/03/24 03:23:30;;;;;;;0.97;0.97;;;;;;;9.51;100.00;100227.44;5071085;28;20213;-76
2023/03/24 03:26:04;;;;;;;0.90;0.90;;;;;;;9.63;100.00;100225.97;5071017;28;20205;-76
2023/03/24 03:28:33;;;;;;;0.63;0.63;;;;;;;9.38;100.00;100224.56;5071219;28;20202;-76
2023/03/24 03:31:05;;;;;;;0.70;0.70;;;;;;;9.34;100.00;100227.97;5090928;28;20277;-76
2023/03/24 03:33:38;;;;;;;0.60;0.60;;;;;;;9.22;100.00;100224.19;5090716;28;20300;-76
2023/03/24 03:36:10;;;;;;;0.80;0.80;;;;;;;9.19;100.00;100219.84;5090882;28;20209;-75
2023/03/24 03:38:45;;;;;;;0.50;0.50;;;;;;;9.18;100.00;100219.78;5090883;28;20280;-77
2023/03/24 03:41:17;;;;;;;0.93;0.93;;;;;;;8.71;100.00;100141.13;5091333;28;20201;-77
2023/03/24 03:43:45;;;;;;;0.70;0.70;;;;;;;8.92;100.00;100199.38;5093873;28;20209;-78
2023/03/24 03:46:12;;;;;;;0.80;0.80;;;;;;;8.95;100.00;100214.13;5094040;28;20206;-76
2023/03/24 03:48:40;;;;;;;0.60;0.60;;;;;;;8.93;100.00;100220.94;5092932;28;20197;-77
2023/03/24 03:51:08;;;;;;;0.90;0.90;;;;;;;8.90;100.00;100216.59;5074600;28;20642;-77
2023/03/24 03:53:41;;;;;;;0.70;0.70;;;;;;;8.77;100.00;100208.50;5094347;28;20222;-77
2023/03/24 03:56:09;;;;;;;0.60;0.60;;;;;;;8.61;100.00;100211.53;5093780;28;20202;-77
2023/03/24 03:58:38;;;;;;;0.70;0.70;;;;;;;8.78;100.00;100221.44;5093806;28;20228;-75
2023/03/24 04:01:06;;;;;;;4.90;4.47;;;;;;;8.74;100.00;100226.53;5093964;28;20203;-76
2023/03/24 04:03:55;;;;;;;0.70;0.70;;;;;;;8.81;100.00;100220.66;5093992;28;20202;-76
2023/03/24 04:06:33;;;;;;;0.70;0.70;;;;;;;8.79;100.00;100230.09;5031081;28;20192;-76
2023/03/24 04:09:09;;;;;;;0.60;0.60;;;;;;;8.70;100.00;100227.28;5031115;28;20195;-76
2023/03/24 04:11:50;;;;;;;0.80;0.80;;;;;;;8.62;100.00;100233.97;5030784;28;20196;-76
2023/03/24 04:14:46;;;;;;;0.60;0.60;;;;;;;8.49;100.00;100216.41;4997026;28;20227;-77
2023/03/24 04:17:27;;;;;;;0.77;0.77;;;;;;;8.60;100.00;100243.38;5030193;28;20192;-77
2023/03/24 04:20:10;;;;;;;0.73;0.73;;;;;;;8.59;100.00;100242.53;5000864;28;20200;-77
2023/03/24 04:22:49;;;;;;;0.90;0.90;;;;;;;8.65;100.00;100239.22;5031426;28;20682;-77
2023/03/24 04:25:24;;;;;;;0.87;0.87;;;;;;;8.38;100.00;100209.25;5031211;28;20200;-76
2023/03/24 04:27:59;;;;;;;0.70;0.70;;;;;;;8.51;100.00;100214.72;5031445;28;20200;-77
2023/03/24 04:30:33;;;;;;;0.73;0.73;;;;;;;8.40;100.00;100210.16;5031049;28;20242;-78
2023/03/24 04:33:03;;;;;;;0.70;0.70;;;;;;;8.57;100.00;100230.38;5031354;28;20224;-78
2023/03/24 04:35:35;;;;;;;0.60;0.60;;;;;;;8.61;100.00;100216.69;5030720;28;20228;-77
2023/03/24 04:38:07;;;;;;;0.70;0.70;;;;;;;8.78;100.00;100243.84;4998552;28;20683;-77
2023/03/24 04:40:40;;;;;;;0.80;0.80;;;;;;;8.74;100.00;100229.97;5029659;28;20204;-77
2023/03/24 04:43:12;;;;;;;0.87;0.87;;;;;;;8.84;100.00;100228.50;5047690;28;20685;-77
2023/03/24 04:45:41;;;;;;;1.10;1.10;;;;;;;8.87;100.00;100232.03;5092684;28;20230;-76
2023/03/24 04:48:12;;;;;;;0.60;0.60;;;;;;;9.03;100.00;100238.41;5040628;28;20193;-76
2023/03/24 04:50:42;;;;;;;0.80;0.80;;;;;;;9.45;100.00;100247.16;5073078;28;20206;-76
2023/03/24 04:53:10;;;;;;;0.80;0.80;;;;;;;9.98;100.00;100247.41;5072621;28;20223;-77
2023/03/24 04:56:05;;;;;;;0.68;0.68;;;;;;;10.87;100.00;100241.31;5092930;28;20225;-77
2023/03/24 04:58:32;;;;;;;0.98;0.88;;;;;;;11.47;100.00;100250.88;5004831;28;20231;-77
2023/03/24 05:01:02;;;;;;;0.80;0.80;;;;;;;12.08;100.00;100260.34;5006195;28;20209;-77
2023/03/24 05:03:28;;;;;;;0.68;0.68;;;;;;;12.35;100.00;100252.84;5010844;28;20262;-77
2023/03/24 05:05:56;;;;;;;0.90;0.90;;;;;;;13.00;100.00;100286.41;5010674;28;20197;-77
2023/03/24 05:08:23;;;;;;;0.80;0.80;;;;;;;13.10;100.00;100277.84;4993632;28;20214;-78
2023/03/24 05:10:50;;;;;;;0.60;0.60;;;;;;;12.96;100.00;100269.03;4962514;28;20244;-78
2023/03/24 05:13:18;;;;;;;0.70;0.70;;;;;;;12.81;100.00;100274.97;5005116;28;20228;-77
2023/03/24 05:15:44;;;;;;;0.50;0.50;;;;;;;12.55;100.00;100292.06;5002199;28;20286;-77
2023/03/24 05:18:12;;;;;;;0.60;0.60;;;;;;;12.38;100.00;100294.47;5005735;28;20208;-77
2023/03/24 05:20:40;;;;;;;0.80;0.80;;;;;;;12.03;100.00;100290.59;5000131;28;20569;-75
2023/03/24 05:23:06;;;;;;;0.50;0.50;;;;;;;11.28;100.00;100246.25;5004579;28;20275;-76
2023/03/24 05:25:33;;;;;;;7.22;1.52;;;;;;;10.80;100.00;100213.53;5002977;28;20201;-76
2023/03/24 05:28:00;;;;;;;0.57;0.57;;;;;;;10.80;100.00;100223.03;5008467;28;20211;-76
2023/03/24 05:30:27;;;;;;;0.63;0.63;;;;;;;11.09;100.00;100288.34;4996978;28;20647;-76
2023/03/24 05:32:53;;;;;;;0.73;0.73;;;;;;;10.86;100.00;100259.44;5008076;28;20229;-77
2023/03/24 05:35:23;;;;;;;0.60;0.60;;;;;;;10.61;100.00;100259.84;5059997;28;20206;-78
2023/03/24 05:37:50;;;;;;;0.70;0.70;;;;;;;10.63;100.00;100286.69;5086188;28;20210;-76
2023/03/24 05:40:17;;;;;;;0.60;0.60;;;;;;;10.72;100.00;100286.84;5091793;28;20194;-76
2023/03/24 05:42:44;;;;;;;0.70;0.70;;;;;;;10.87;100.00;100285.41;5054953;28;20209;-78
2023/03/24 05:45:11;;;;;;;0.60;0.60;;;;;;;10.88;100.00;100279.34;5091769;28;20222;-73
2023/03/24 05:47:38;;;;;;;0.85;0.85;;;;;;;10.84;100.00;100281.88;5091344;28;20211;-71
2023/03/24 05:50:06;;;;;;;0.70;0.70;;;;;;;10.86;100.00;100287.97;5039452;28;20577;-75
2023/03/24 05:52:35;;;;;;;0.73;0.73;;;;;;;11.06;100.00;100302.13;5084978;28;20209;-75
2023/03/24 05:55:02;;;;;;;0.57;0.57;;;;;;;10.83;100.00;100269.75;5087384;28;20261;-76
2023/03/24 05:57:30;;;;;;;2.75;1.80;;;;;;;11.12;100.00;100237.38;5090967;28;20208;-78
2023/03/24 05:59:56;;;;;;;0.60;0.60;;;;;;;11.47;100.00;100269.03;5091242;28;20253;-75
2023/03/24 06:02:24;;;;;;;0.80;0.80;;;;;;;11.38;100.00;100277.56;5091074;28;20210;-77
2023/03/24 06:04:51;;;;;;;0.70;0.70;;;;;;;11.49;100.00;100266.44;5091393;28;20198;-76
2023/03/24 06:07:18;;;;;;;0.90;0.90;;;;;;;11.78;100.00;100278.16;5091161;28;20237;-76
2023/03/24 06:09:50;;;;;;;0.70;0.70;;;;;;;12.01;100.00;100273.25;5053290;28;20210;-76
2023/03/24 06:12:17;;;;;;;0.70;0.70;;;;;;;11.86;100.00;100280.00;5091236;28;20660;-75
2023/03/24 06:14:44;;;;;;;1.13;1.13;;;;;;;11.71;100.00;100286.72;5039038;28;20230;-79
2023/03/24 06:17:13;;;;;;;0.70;0.70;;;;;;;11.03;100.00;100294.31;5091217;28;20204;-75
2023/03/24 06:19:48;;;;;;;0.65;0.65;;;;;;;11.15;100.00;100294.50;5076737;28;20278;-76
2023/03/24 06:22:16;;;;;;;0.93;0.93;;;;;;;11.19;100.00;100285.94;5090315;28;20212;-77
2023/03/24 06:24:43;;;;;;;0.80;0.80;;;;;;;11.35;100.00;100311.25;5091056;28;20600;-73
2023/03/24 06:27:13;;;;;;;0.70;0.70;;;;;;;11.47;100.00;100296.72;5091022;28;20198;-75
2023/03/24 06:29:41;;;;;;;0.80;0.80;;;;;;;11.65;100.00;100302.19;5082198;28;20206;-75
2023/03/24 06:32:08;;;;;;;0.60;0.60;;;;;;;11.80;100.00;100302.44;5050831;28;20607;-73
2023/03/24 06:34:35;;;;;;;0.60;0.60;;;;;;;11.52;100.00;100289.88;5090952;28;20229;-75
2023/03/24 06:37:01;;;;;;;0.60;0.60;;;;;;;11.72;100.00;100304.03;5090747;28;20665;-74
2023/03/24 06:39:28;;;;;;;0.90;0.90;;;;;;;11.85;100.00;100300.75;5087197;28;20220;-74
2023/03/24 06:41:55;;;;;;;0.77;0.77;;;;;;;12.02;100.00;100298.41;5047018;28;20198;-74
2023/03/24 06:44:24;;;;;;;0.50;0.50;;;;;;;12.09;100.00;100295.91;5080788;28;20666;-74
2023/03/24 06:46:50;;;;;;;0.60;0.60;;;;;;;12.14;100.00;100293.31;5022747;28;20558;-74
2023/03/24 06:49:17;;;;;;;0.50;0.50;;;;;;;12.32;100.00;100314.34;5090327;28;20566;-75
2023/03/24 06:51:44;;;;;;;1.02;1.02;;;;;;;12.11;100.00;100316.69;5039318;28;20212;-76
2023/03/24 06:54:11;;;;;;;0.60;0.60;;;;;;;12.30;100.00;100311.75;5092247;28;20229;-80
2023/03/24 06:56:38;;;;;;;0.60;0.60;;;;;;;12.26;100.00;100315.16;5095007;28;20693;-74
2023/03/24 06:59:04;;;;;;;0.60;0.60;;;;;;;12.43;100.00;100323.13;5097855;28;20234;-76
2023/03/24 07:01:34;;;;;;;0.60;0.60;;;;;;;12.57;100.00;100325.88;5096893;28;20298;-78
2023/03/24 07:04:01;;;;;;;0.95;0.95;;;;;;;12.38;100.00;100304.88;5079390;28;20202;-75
2023/03/24 07:06:29;;;;;;;0.50;0.50;;;;;;;12.61;100.00;100330.28;5086771;28;20202;-75
2023/03/24 07:08:56;;;;;;;0.95;0.95;;;;;;;12.43;100.00;100324.03;5035364;28;20229;-74
2023/03/24 07:11:24;;;;;;;0.60;0.60;;;;;;;12.58;100.00;100328.53;5049762;28;20206;-74
2023/03/24 07:13:52;;;;;;;4.43;1.45;;;;;;;12.70;100.00;100325.19;5088992;28;20241;-76
2023/03/24 07:16:18;;;;;;;0.60;0.60;;;;;;;12.85;100.00;100323.59;5091965;28;20209;-85
2023/03/24 07:18:46;;;;;;;0.98;0.93;;;;;;;13.00;100.00;100325.47;5094593;28;20213;-73
2023/03/24 07:21:13;;;;;;;0.60;0.60;;;;;;;13.26;100.00;100310.97;5091374;28;20209;-76
2023/03/24 07:23:40;;;;;;;0.60;0.60;;;;;;;13.41;100.00;100334.50;5041781;28;20686;-78
2023/03/24 07:26:07;;;;;;;0.65;0.65;;;;;;;13.43;100.00;100338.88;5041908;28;20198;-75
2023/03/24 07:28:34;;;;;;;0.63;0.63;;;;;;;13.54;100.00;100339.81;5088655;28;20233;-74
2023/03/24 07:31:02;;;;;;;1.30;1.30;;;;;;;13.64;100.00;100339.03;5091873;28;20660;-76
2023/03/24 07:33:29;;;;;;;1.15;1.05;;;;;;;13.67;100.00;100344.25;5059294;28;20206;-76
2023/03/24 07:35:58;;;;;;;0.93;0.93;;;;;;;13.28;100.00;100266.69;5094469;28;20202;-76
2023/03/24 07:38:25;;;;;;;0.90;0.90;;;;;;;13.76;100.00;100349.53;5094637;28;20210;-72
2023/03/24 07:40:52;;;;;;;0.60;0.60;;;;;;;13.86;100.00;100349.59;5093993;28;20194;-72
2023/03/24 07:43:19;;;;;;;0.57;0.57;;;;;;;13.89;100.00;100356.56;5090398;28;20203;-71
2023/03/24 07:45:46;;;;;;;1.10;1.10;;;;;;;13.52;100.00;100331.13;5093687;28;20603;-72
2023/03/24 07:48:13;;;;;;;1.23;1.13;;;;;;;13.86;100.00;100351.34;5094100;28;20202;-72
2023/03/24 07:50:40;;;;;;;0.57;0.57;;;;;;;13.99;100.00;100352.25;5093693;28;20221;-73
2023/03/24 07:53:08;;;;;;;0.50;0.50;;;;;;;14.21;100.00;100344.56;5090673;28;20221;-73
2023/03/24 07:55:36;;;;;;;1.00;1.00;;;;;;;14.30;100.00;100341.97;5093988;28;20230;-72
2023/03/24 07:58:02;;;;;;;0.60;0.60;;;;;;;14.41;100.00;100344.69;5041573;28;20202;-72
2023/03/24 08:00:31;;;;;;;0.60;0.60;;;;;;;14.43;100.00;100344.69;5093761;28;20206;-72
2023/03/24 08:03:02;;;;;;;0.50;0.50;;;;;;;14.37;100.00;100343.81;5093591;28;20209;-72
2023/03/24 08:05:30;;;;;;;0.60;0.60;;;;;;;14.19;100.00;100345.44;5083563;28;20264;-72
2023/03/24 08:07:57;;;;;;;0.70;0.70;;;;;;;14.61;100.00;100340.41;5093590;28;20217;-72
2023/03/24 08:10:27;;;;;;;4.68;1.52;;;;;;;14.76;100.00;100330.00;5093491;28;20198;-71
2023/03/24 08:12:54;;;;;;;0.50;0.50;;;;;;;14.89;100.00;100342.19;5091532;28;20205;-71
2023/03/24 08:15:21;;;;;;;0.40;0.40;;;;;;;14.95;100.00;100341.31;5093424;28;20735;-71
2023/03/24 08:17:49;;;;;;;0.60;0.60;;;;;;;14.77;100.00;100347.38;5093364;28;20230;-71
2023/03/24 08:20:18;;;;;;;0.60;0.60;;;;;;;14.80;100.00;100336.09;5084556;28;20213;-72
2023/03/24 08:22:48;;;;;;;0.65;0.65;;;;;;;15.08;100.00;100337.00;5088119;28;20198;-72
2023/03/24 08:25:16;;;;;;;0.52;0.52;;;;;;;15.22;100.00;100340.50;5089395;28;20708;-72
2023/03/24 08:27:46;;;;;;;0.70;0.70;;;;;;;15.26;100.00;100331.78;5090041;28;20727;-71
2023/03/24 08:30:15;;;;;;;0.60;0.60;;;;;;;15.02;100.00;100316.13;5079355;28;20207;-72
2023/03/24 08:32:44;;;;;;;0.82;0.82;;;;;;;15.37;100.00;100330.88;5088204;28;20325;-71
2023/03/24 08:35:13;;;;;;;0.70;0.70;;;;;;;15.33;100.00;100296.94;5090850;28;20233;-69
2023/03/24 08:37:41;;;;;;;0.75;0.75;;;;;;;15.35;100.00;100316.97;5087104;28;20198;-70
2023/03/24 08:40:12;;;;;;;0.60;0.60;;;;;;;15.65;100.00;100312.63;5083665;28;20245;-70
2023/03/24 08:42:39;;;;;;;1.00;1.00;;;;;;;15.76;100.00;100319.56;5056214;28;20202;-70
2023/03/24 08:45:09;;;;;;;0.63;0.63;;;;;;;15.93;100.00;100289.88;5079639;28;20198;-70
2023/03/24 08:47:36;;;;;;;0.60;0.60;;;;;;;15.95;100.00;100319.50;5079469;28;20241;-70
2023/03/24 08:50:03;;;;;;;0.60;0.60;;;;;;;15.79;100.00;100313.47;5086340;28;20191;-70
2023/03/24 08:52:30;;;;;;;0.60;0.60;;;;;;;15.73;100.00;100318.72;5075352;28;20207;-70
2023/03/24 08:54:57;;;;;;;0.57;0.57;;;;;;;15.94;100.00;100307.31;5072853;28;20292;-70
2023/03/24 08:57:24;;;;;;;0.60;0.60;;;;;;;15.92;100.00;100309.91;5085284;28;20199;-70
2023/03/24 08:59:51;;;;;;;0.88;0.88;;;;;;;15.58;100.00;100298.69;5089762;28;20243;-70
2023/03/24 09:02:19;;;;;;;0.50;0.50;;;;;;;15.63;100.00;100314.34;5092884;28;20198;-70
2023/03/24 09:04:46;;;;;;;0.60;0.60;;;;;;;15.77;100.00;100309.97;5087601;28;20198;-69
2023/03/24 09:07:13;;;;;;;0.65;0.65;;;;;;;15.96;100.00;100309.03;5090161;28;20202;-70
2023/03/24 09:09:39;;;;;;;0.50;0.50;;;;;;;16.11;100.00;100311.63;5081330;28;20642;-71
2023/03/24 09:12:07;;;;;;;0.70;0.70;;;;;;;16.38;100.00;100310.59;5089188;28;20610;-71
2023/03/24 09:14:34;;;;;;;0.60;0.60;;;;;;;16.27;100.00;100312.41;5043532;28;20227;-70
2023/03/24 09:17:00;;;;;;;0.60;0.60;;;;;;;16.43;100.00;100292.28;5081805;28;20205;-70
2023/03/24 09:19:29;;;;;;;0.70;0.70;;;;;;;16.73;98.73;100303.47;5091482;28;20680;-70
2023/03/24 09:21:55;;;;;;;0.70;0.70;;;;;;;16.35;96.06;100217.28;5086833;28;20198;-71
2023/03/24 09:24:22;;;;;;;0.50;0.50;;;;;;;16.96;91.26;100305.94;5091526;28;20217;-70
2023/03/24 09:26:49;;;;;;;0.50;0.50;;;;;;;16.84;91.24;100280.69;5091332;28;20210;-70
2023/03/24 09:29:16;;;;;;;0.55;0.55;;;;;;;16.89;89.84;100301.63;5085450;28;20243;-70
2023/03/24 09:31:43;;;;;;;0.40;0.40;;;;;;;16.97;89.58;100284.09;5027180;28;20203;-71
2023/03/24 09:34:09;;;;;;;0.70;0.70;;;;;;;17.13;87.01;100290.94;5089033;28;20238;-71
2023/03/24 09:36:37;;;;;;;0.98;0.98;;;;;;;17.26;85.59;100284.72;5039545;28;20566;-70
2023/03/24 09:39:05;;;;;;;0.50;0.50;;;;;;;17.32;80.81;100284.66;5090628;28;20211;-70
2023/03/24 09:41:32;;;;;;;1.92;1.83;;;;;;;17.44;80.59;100286.31;5056170;28;20206;-71
2023/03/24 09:44:03;;;;;;;0.50;0.50;;;;;;;17.46;77.62;100271.44;5091463;28;20209;-71
2023/03/24 09:46:35;;;;;;;0.60;0.60;;;;;;;17.77;79.22;100283.34;5091312;28;20210;-72
2023/03/24 09:49:03;;;;;;;0.65;0.65;;;;;;;17.81;74.09;100278.94;5091334;28;20198;-72
2023/03/24 09:51:35;;;;;;;0.65;0.65;;;;;;;17.65;72.69;100251.16;5087347;28;20210;-71
2023/03/24 09:54:14;;;;;;;0.75;0.75;;;;;;;17.88;70.34;100267.50;5049374;28;20199;-70
2023/03/24 09:56:44;;;;;;;0.60;0.60;;;;;;;18.06;72.70;100277.78;5088270;28;20205;-71
2023/03/24 09:59:17;;;;;;;0.50;0.50;;;;;;;17.94;70.56;100280.56;5091730;28;20306;-71
2023/03/24 10:01:45;;;;;;;0.82;0.82;;;;;;;17.98;68.96;100279.63;5091440;28;20633;-71
2023/03/24 10:04:15;;;;;;;0.57;0.57;;;;;;;18.08;66.94;100278.66;5091488;28;20305;-71
2023/03/24 10:06:43;;;;;;;0.60;0.60;;;;;;;18.06;65.63;100259.41;5091607;28;20298;-71
2023/03/24 10:09:24;;;;;;;0.50;0.50;;;;;;;18.05;65.85;100241.91;5091372;28;20197;-71
2023/03/24 10:12:01;;;;;;;0.60;0.60;;;;;;;18.44;65.62;100276.44;5091524;28;20232;-71
2023/03/24 10:14:43;;;;;;;1.85;1.67;;;;;;;18.31;66.19;100263.44;5091137;28;20262;-71
2023/03/24 10:17:19;;;;;;;0.70;0.70;;;;;;;18.52;65.92;100264.06;5091307;28;20198;-71
2023/03/24 10:19:53;;;;;;;0.50;0.50;;;;;;;18.14;64.46;100199.81;5089116;28;20197;-70
2023/03/24 10:22:25;;;;;;;0.60;0.60;;;;;;;18.64;64.53;100263.91;5090905;28;20213;-70
2023/03/24 10:24:58;;;;;;;0.60;0.60;;;;;;;18.79;64.86;100266.31;5090576;28;20202;-69
2023/03/24 10:27:30;;;;;;;0.60;0.60;;;;;;;18.48;62.38;100254.50;5091034;28;20276;-70
2023/03/24 10:30:03;;;;;;;0.60;0.60;;;;;;;18.30;61.73;100269.59;5090952;28;20198;-70
2023/03/24 10:32:34;;;;;;;0.70;0.70;;;;;;;18.43;61.19;100259.78;5090823;28;20232;-71
2023/03/24 10:35:08;;;;;;;0.45;0.45;;;;;;;18.40;63.20;100248.47;5090729;28;20221;-72
2023/03/24 10:37:35;;;;;;;0.80;0.80;;;;;;;18.42;61.85;100251.94;5090524;28;20259;-70
2023/03/24 10:40:15;;;;;;;0.60;0.60;;;;;;;18.31;59.73;100186.44;5090822;28;20202;-69
2023/03/24 10:42:43;;;;;;;0.60;0.60;;;;;;;18.79;59.59;100258.41;5090543;28;20201;-69
2023/03/24 10:45:13;;;;;;;1.10;1.10;;;;;;;18.56;57.93;100250.00;5055454;28;20526;-70
2023/03/24 10:47:42;;;;;;;0.70;0.70;;;;;;;18.58;57.58;100253.50;5076059;28;20199;-69
2023/03/24 10:50:11;;;;;;;0.70;0.70;;;;;;;18.64;57.82;100237.63;5080023;28;20227;-69
2023/03/24 10:52:42;;;;;;;0.77;0.77;;;;;;;18.85;58.24;100242.56;5089865;28;20219;-70
2023/03/24 10:55:17;;;;;;;0.60;0.60;;;;;;;19.06;57.66;100241.31;5094625;28;20230;-71
2023/03/24 10:57:46;;;;;;;0.60;0.60;;;;;;;19.21;58.60;100235.81;5092164;28;20638;-71
2023/03/24 11:00:23;;;;;;;0.63;0.63;;;;;;;19.23;58.18;100232.25;5074450;28;20604;-70
2023/03/24 11:02:57;;;;;;;0.50;0.50;;;;;;;19.44;59.16;100217.03;5040493;28;20204;-70
2023/03/24 11:05:29;;;;;;;0.73;0.73;;;;;;;19.39;57.72;100224.09;5094862;28;20202;-70
2023/03/24 11:08:11;;;;;;;0.65;0.65;;;;;;;19.37;59.31;100225.91;5094643;28;20676;-73
2023/03/24 11:10:39;;;;;;;0.70;0.70;;;;;;;19.47;61.20;100214.34;5032099;28;20238;-72
2023/03/24 11:13:17;;;;;;;0.70;0.70;;;;;;;19.54;57.42;100213.31;5091287;28;20241;-72
2023/03/24 11:15:53;;;;;;;0.60;0.60;;;;;;;19.67;56.56;100197.25;5094466;28;20248;-73
2023/03/24 11:18:21;;;;;;;0.60;0.60;;;;;;;19.65;54.10;100206.97;5094232;28;20194;-71
2023/03/24 11:21:02;;;;;;;0.60;0.60;;;;;;;19.79;52.89;100193.53;5094365;28;20260;-72
2023/03/24 11:23:32;;;;;;;0.52;0.52;;;;;;;19.87;53.35;100193.38;5094681;28;20376;-71
2023/03/24 11:26:09;;;;;;;0.60;0.60;;;;;;;19.90;53.28;100191.53;5094792;28;20209;-72
2023/03/24 11:28:40;;;;;;;0.65;0.65;;;;;;;19.97;53.67;100187.88;5094523;28;20193;-73
2023/03/24 11:31:09;;;;;;;0.60;0.60;;;;;;;19.80;51.96;100180.31;5094375;28;20669;-72
2023/03/24 11:33:45;;;;;;;0.60;0.60;;;;;;;19.61;52.69;100157.06;5094473;28;20202;-72
2023/03/24 11:36:38;;;;;;;0.50;0.50;;;;;;;19.70;52.57;100173.50;5094229;28;20734;-72